Impacts TAF Board
For situational awareness. Not to be used for flight planning purposes.
IDs:

KMSP - Minneapolis-St Paul, MN, US

Issued at 0520 UTC 16 Dec 2018
Updated at 0521 UTC 16 Dec 2018
Potential Impact None Slight Moderate High
Time<<16/18Z 16/19Z 16/20Z 16/21Z 16/22Z 16/23Z 17/00Z 17/01Z 17/02Z 17/03Z 17/04Z 17/05Z 17/06Z>>
Type PRVL PRVL PRVL PRVL PRVL PRVL PRVL PRVL PRVL PRVL PRVL PRVL PRVL
VIS >6 >6 >6 >6 >6 >6 >6 >6 >6 >6 >6 >6 >6
CIG -- -- -- -- -- -- -- -- -- -- -- -- --
Cover SCT SCT SCT SCT SCT SCT SCT SCT SCT SCT SCT FEW FEW
FltCat VFR VFR VFR VFR VFR VFR VFR VFR VFR VFR VFR VFR VFR
WX -- -- -- -- -- -- -- -- -- -- -- -- --
WDir 280 280 280 280 280 280 280 280 280 280 280 310 310
WSpd 5 5 5 5 5 5 5 5 5 5 5 5 5
WGst -- -- -- -- -- -- -- -- -- -- -- -- --
Raw TAF
KMSP 160520Z 1606/1712 23008KT P6SM FEW250
  FM161500 28005KT P6SM SCT250
  FM170500 31005KT P6SM FEW200


METAR Board
Radar Display
Forecast Discussion
For situational awareness. Not to be used for flight planning purposes.